sensor_id;sensor_type;location;lat;lon;timestamp;P1;durP1;ratioP1;P2;durP2;ratioP2
20283;SDS011;10301;50.832;4.080;2023-11-19T00:02:21;14.15;;;5.32;;
20283;SDS011;10301;50.832;4.080;2023-11-19T00:04:47;12.70;;;4.88;;
20283;SDS011;10301;50.832;4.080;2023-11-19T00:07:13;9.00;;;4.10;;
20283;SDS011;10301;50.832;4.080;2023-11-19T00:09:39;13.13;;;4.75;;
20283;SDS011;10301;50.832;4.080;2023-11-19T00:12:05;12.85;;;4.40;;
20283;SDS011;10301;50.832;4.080;2023-11-19T00:14:32;11.70;;;4.38;;
20283;SDS011;10301;50.832;4.080;2023-11-19T00:16:58;15.57;;;4.72;;
20283;SDS011;10301;50.832;4.080;2023-11-19T00:19:23;9.65;;;4.60;;
20283;SDS011;10301;50.832;4.080;2023-11-19T00:21:49;13.73;;;3.85;;
20283;SDS011;10301;50.832;4.080;2023-11-19T00:24:15;12.10;;;4.28;;
20283;SDS011;10301;50.832;4.080;2023-11-19T00:26:42;11.95;;;4.57;;
20283;SDS011;10301;50.832;4.080;2023-11-19T00:29:08;17.58;;;4.50;;
20283;SDS011;10301;50.832;4.080;2023-11-19T00:31:34;20.63;;;4.18;;
20283;SDS011;10301;50.832;4.080;2023-11-19T00:34:00;13.45;;;3.78;;
20283;SDS011;10301;50.832;4.080;2023-11-19T00:36:27;15.88;;;4.25;;
20283;SDS011;10301;50.832;4.080;2023-11-19T00:38:53;21.90;;;4.20;;
20283;SDS011;10301;50.832;4.080;2023-11-19T00:41:19;14.43;;;3.78;;
20283;SDS011;10301;50.832;4.080;2023-11-19T00:43:45;13.15;;;3.65;;
20283;SDS011;10301;50.832;4.080;2023-11-19T00:46:10;12.05;;;3.63;;
20283;SDS011;10301;50.832;4.080;2023-11-19T00:48:36;14.82;;;3.95;;
20283;SDS011;10301;50.832;4.080;2023-11-19T00:51:02;17.15;;;3.97;;
20283;SDS011;10301;50.832;4.080;2023-11-19T00:53:29;15.32;;;3.28;;
20283;SDS011;10301;50.832;4.080;2023-11-19T00:55:55;14.98;;;3.33;;
20283;SDS011;10301;50.832;4.080;2023-11-19T00:58:22;16.13;;;3.38;;
20283;SDS011;10301;50.832;4.080;2023-11-19T01:00:47;15.85;;;3.05;;
20283;SDS011;10301;50.832;4.080;2023-11-19T01:03:13;18.05;;;3.50;;
20283;SDS011;10301;50.832;4.080;2023-11-19T01:05:40;15.15;;;3.25;;
20283;SDS011;10301;50.832;4.080;2023-11-19T01:08:06;20.30;;;4.35;;
20283;SDS011;10301;50.832;4.080;2023-11-19T01:10:33;18.65;;;3.75;;
20283;SDS011;10301;50.832;4.080;2023-11-19T01:12:59;18.52;;;3.20;;
20283;SDS011;10301;50.832;4.080;2023-11-19T01:15:25;15.98;;;3.60;;
20283;SDS011;10301;50.832;4.080;2023-11-19T01:17:51;13.93;;;3.40;;
20283;SDS011;10301;50.832;4.080;2023-11-19T01:20:16;14.88;;;2.80;;
20283;SDS011;10301;50.832;4.080;2023-11-19T01:22:42;17.20;;;3.45;;
20283;SDS011;10301;50.832;4.080;2023-11-19T01:25:08;18.98;;;3.55;;
20283;SDS011;10301;50.832;4.080;2023-11-19T01:27:34;15.20;;;3.50;;
20283;SDS011;10301;50.832;4.080;2023-11-19T01:30:03;23.38;;;3.58;;
20283;SDS011;10301;50.832;4.080;2023-11-19T01:32:31;20.48;;;3.55;;
20283;SDS011;10301;50.832;4.080;2023-11-19T01:34:57;20.95;;;3.67;;
20283;SDS011;10301;50.832;4.080;2023-11-19T01:37:22;16.77;;;3.58;;
20283;SDS011;10301;50.832;4.080;2023-11-19T01:39:48;20.02;;;4.63;;
20283;SDS011;10301;50.832;4.080;2023-11-19T01:42:14;20.08;;;3.60;;
20283;SDS011;10301;50.832;4.080;2023-11-19T01:44:40;20.25;;;3.33;;
20283;SDS011;10301;50.832;4.080;2023-11-19T01:47:06;17.42;;;3.65;;
20283;SDS011;10301;50.832;4.080;2023-11-19T01:49:33;23.45;;;3.78;;
20283;SDS011;10301;50.832;4.080;2023-11-19T01:51:59;19.27;;;3.22;;
20283;SDS011;10301;50.832;4.080;2023-11-19T01:54:26;20.75;;;3.60;;
20283;SDS011;10301;50.832;4.080;2023-11-19T01:56:53;22.17;;;4.68;;
20283;SDS011;10301;50.832;4.080;2023-11-19T01:59:21;18.55;;;3.55;;
20283;SDS011;10301;50.832;4.080;2023-11-19T02:01:51;17.60;;;3.20;;
20283;SDS011;10301;50.832;4.080;2023-11-19T02:04:20;21.52;;;3.67;;
20283;SDS011;10301;50.832;4.080;2023-11-19T02:06:46;19.38;;;3.85;;
20283;SDS011;10301;50.832;4.080;2023-11-19T02:09:17;23.90;;;3.85;;
20283;SDS011;10301;50.832;4.080;2023-11-19T02:11:44;23.05;;;3.35;;
20283;SDS011;10301;50.832;4.080;2023-11-19T02:14:14;24.98;;;4.30;;
20283;SDS011;10301;50.832;4.080;2023-11-19T02:16:40;20.13;;;4.18;;
20283;SDS011;10301;50.832;4.080;2023-11-19T02:19:06;16.20;;;3.40;;
20283;SDS011;10301;50.832;4.080;2023-11-19T02:21:33;24.70;;;4.28;;
20283;SDS011;10301;50.832;4.080;2023-11-19T02:23:58;19.38;;;3.90;;
20283;SDS011;10301;50.832;4.080;2023-11-19T02:26:26;21.27;;;3.75;;
20283;SDS011;10301;50.832;4.080;2023-11-19T02:28:58;15.43;;;2.78;;
20283;SDS011;10301;50.832;4.080;2023-11-19T02:31:23;23.23;;;3.70;;
20283;SDS011;10301;50.832;4.080;2023-11-19T02:33:49;20.10;;;3.25;;
20283;SDS011;10301;50.832;4.080;2023-11-19T02:36:15;17.88;;;3.22;;
20283;SDS011;10301;50.832;4.080;2023-11-19T02:38:41;18.60;;;3.60;;
20283;SDS011;10301;50.832;4.080;2023-11-19T02:41:07;20.55;;;3.58;;
20283;SDS011;10301;50.832;4.080;2023-11-19T02:43:35;21.13;;;3.30;;
20283;SDS011;10301;50.832;4.080;2023-11-19T02:46:02;16.42;;;3.13;;
20283;SDS011;10301;50.832;4.080;2023-11-19T02:48:32;20.63;;;3.55;;
20283;SDS011;10301;50.832;4.080;2023-11-19T02:51:01;18.67;;;3.17;;
20283;SDS011;10301;50.832;4.080;2023-11-19T02:53:28;22.10;;;3.95;;
20283;SDS011;10301;50.832;4.080;2023-11-19T02:55:57;25.13;;;3.53;;
20283;SDS011;10301;50.832;4.080;2023-11-19T02:58:31;19.83;;;3.35;;
20283;SDS011;10301;50.832;4.080;2023-11-19T03:00:57;18.42;;;3.42;;
20283;SDS011;10301;50.832;4.080;2023-11-19T03:03:24;18.35;;;3.88;;
20283;SDS011;10301;50.832;4.080;2023-11-19T03:05:55;25.08;;;3.55;;
20283;SDS011;10301;50.832;4.080;2023-11-19T03:08:21;24.92;;;3.53;;
20283;SDS011;10301;50.832;4.080;2023-11-19T03:10:47;21.30;;;4.25;;
20283;SDS011;10301;50.832;4.080;2023-11-19T03:13:13;20.17;;;3.28;;
20283;SDS011;10301;50.832;4.080;2023-11-19T03:15:40;17.35;;;3.42;;
20283;SDS011;10301;50.832;4.080;2023-11-19T03:18:06;19.67;;;3.55;;
20283;SDS011;10301;50.832;4.080;2023-11-19T03:20:32;23.10;;;3.92;;
20283;SDS011;10301;50.832;4.080;2023-11-19T03:22:58;19.48;;;3.65;;
20283;SDS011;10301;50.832;4.080;2023-11-19T03:25:25;19.33;;;4.03;;
20283;SDS011;10301;50.832;4.080;2023-11-19T03:27:58;23.02;;;4.00;;
20283;SDS011;10301;50.832;4.080;2023-11-19T03:30:25;23.45;;;3.88;;
20283;SDS011;10301;50.832;4.080;2023-11-19T03:32:51;25.42;;;3.67;;
20283;SDS011;10301;50.832;4.080;2023-11-19T03:35:17;21.20;;;3.10;;
20283;SDS011;10301;50.832;4.080;2023-11-19T03:37:43;24.13;;;3.78;;
20283;SDS011;10301;50.832;4.080;2023-11-19T03:40:09;19.73;;;3.55;;
20283;SDS011;10301;50.832;4.080;2023-11-19T03:42:35;19.75;;;3.58;;
20283;SDS011;10301;50.832;4.080;2023-11-19T03:45:01;28.23;;;3.80;;
20283;SDS011;10301;50.832;4.080;2023-11-19T03:47:29;25.05;;;3.83;;
20283;SDS011;10301;50.832;4.080;2023-11-19T03:49:54;25.48;;;4.88;;
20283;SDS011;10301;50.832;4.080;2023-11-19T03:52:20;28.45;;;3.85;;
20283;SDS011;10301;50.832;4.080;2023-11-19T03:54:46;20.80;;;3.90;;
20283;SDS011;10301;50.832;4.080;2023-11-19T03:57:14;23.40;;;5.28;;
20283;SDS011;10301;50.832;4.080;2023-11-19T03:59:43;20.20;;;3.65;;
20283;SDS011;10301;50.832;4.080;2023-11-19T04:02:09;23.23;;;3.97;;
20283;SDS011;10301;50.832;4.080;2023-11-19T04:04:35;29.80;;;5.18;;
20283;SDS011;10301;50.832;4.080;2023-11-19T04:07:02;18.95;;;4.28;;
20283;SDS011;10301;50.832;4.080;2023-11-19T04:09:28;27.85;;;4.32;;
20283;SDS011;10301;50.832;4.080;2023-11-19T04:11:55;23.42;;;4.03;;
20283;SDS011;10301;50.832;4.080;2023-11-19T04:14:21;18.83;;;3.85;;
20283;SDS011;10301;50.832;4.080;2023-11-19T04:16:46;28.15;;;3.90;;
20283;SDS011;10301;50.832;4.080;2023-11-19T04:19:12;28.90;;;5.93;;
20283;SDS011;10301;50.832;4.080;2023-11-19T04:21:41;21.77;;;3.58;;
20283;SDS011;10301;50.832;4.080;2023-11-19T04:24:07;26.27;;;3.83;;
20283;SDS011;10301;50.832;4.080;2023-11-19T04:26:39;31.80;;;4.53;;
20283;SDS011;10301;50.832;4.080;2023-11-19T04:29:11;25.35;;;4.32;;
20283;SDS011;10301;50.832;4.080;2023-11-19T04:31:40;25.40;;;4.20;;
20283;SDS011;10301;50.832;4.080;2023-11-19T04:34:06;25.98;;;3.97;;
20283;SDS011;10301;50.832;4.080;2023-11-19T04:36:32;27.13;;;4.18;;
20283;SDS011;10301;50.832;4.080;2023-11-19T04:38:59;33.63;;;4.45;;
20283;SDS011;10301;50.832;4.080;2023-11-19T04:41:25;25.45;;;4.50;;
20283;SDS011;10301;50.832;4.080;2023-11-19T04:43:55;29.08;;;4.13;;
20283;SDS011;10301;50.832;4.080;2023-11-19T04:46:21;35.17;;;4.43;;
20283;SDS011;10301;50.832;4.080;2023-11-19T04:48:46;24.50;;;4.80;;
20283;SDS011;10301;50.832;4.080;2023-11-19T04:51:12;27.20;;;4.60;;
20283;SDS011;10301;50.832;4.080;2023-11-19T04:53:38;26.88;;;4.35;;
20283;SDS011;10301;50.832;4.080;2023-11-19T04:56:07;28.58;;;4.65;;
20283;SDS011;10301;50.832;4.080;2023-11-19T04:58:34;25.83;;;4.05;;
20283;SDS011;10301;50.832;4.080;2023-11-19T05:01:02;29.10;;;4.50;;
20283;SDS011;10301;50.832;4.080;2023-11-19T05:03:28;27.08;;;4.07;;
20283;SDS011;10301;50.832;4.080;2023-11-19T05:05:54;28.58;;;4.78;;
20283;SDS011;10301;50.832;4.080;2023-11-19T05:08:20;26.40;;;4.05;;
20283;SDS011;10301;50.832;4.080;2023-11-19T05:10:45;21.83;;;4.22;;
20283;SDS011;10301;50.832;4.080;2023-11-19T05:13:11;23.85;;;4.78;;
20283;SDS011;10301;50.832;4.080;2023-11-19T05:15:37;31.42;;;5.00;;
20283;SDS011;10301;50.832;4.080;2023-11-19T05:18:03;26.83;;;4.97;;
20283;SDS011;10301;50.832;4.080;2023-11-19T05:20:30;25.90;;;4.28;;
20283;SDS011;10301;50.832;4.080;2023-11-19T05:22:56;30.67;;;4.72;;
20283;SDS011;10301;50.832;4.080;2023-11-19T05:25:23;30.67;;;4.72;;
20283;SDS011;10301;50.832;4.080;2023-11-19T05:27:48;32.33;;;4.40;;
20283;SDS011;10301;50.832;4.080;2023-11-19T05:30:14;22.98;;;4.22;;
20283;SDS011;10301;50.832;4.080;2023-11-19T05:32:40;25.85;;;4.13;;
20283;SDS011;10301;50.832;4.080;2023-11-19T05:35:06;26.83;;;4.35;;
20283;SDS011;10301;50.832;4.080;2023-11-19T05:37:33;30.75;;;5.57;;
20283;SDS011;10301;50.832;4.080;2023-11-19T05:40:00;26.40;;;4.25;;
20283;SDS011;10301;50.832;4.080;2023-11-19T05:42:28;27.48;;;5.10;;
20283;SDS011;10301;50.832;4.080;2023-11-19T05:44:53;26.95;;;4.95;;
20283;SDS011;10301;50.832;4.080;2023-11-19T05:47:19;29.10;;;4.63;;
20283;SDS011;10301;50.832;4.080;2023-11-19T05:49:45;33.90;;;4.47;;
20283;SDS011;10301;50.832;4.080;2023-11-19T05:52:10;27.50;;;4.70;;
20283;SDS011;10301;50.832;4.080;2023-11-19T05:54:37;33.42;;;5.45;;
20283;SDS011;10301;50.832;4.080;2023-11-19T05:57:06;34.42;;;5.25;;
20283;SDS011;10301;50.832;4.080;2023-11-19T05:59:35;31.60;;;4.45;;
20283;SDS011;10301;50.832;4.080;2023-11-19T06:02:01;28.67;;;4.32;;
20283;SDS011;10301;50.832;4.080;2023-11-19T06:04:28;29.92;;;4.65;;
20283;SDS011;10301;50.832;4.080;2023-11-19T06:06:54;23.42;;;4.13;;
20283;SDS011;10301;50.832;4.080;2023-11-19T06:09:20;29.80;;;4.78;;
20283;SDS011;10301;50.832;4.080;2023-11-19T06:11:48;24.50;;;4.45;;
20283;SDS011;10301;50.832;4.080;2023-11-19T06:14:14;34.50;;;4.93;;
20283;SDS011;10301;50.832;4.080;2023-11-19T06:16:40;27.42;;;4.97;;
20283;SDS011;10301;50.832;4.080;2023-11-19T06:19:05;27.02;;;3.95;;
20283;SDS011;10301;50.832;4.080;2023-11-19T06:21:31;29.90;;;5.20;;
20283;SDS011;10301;50.832;4.080;2023-11-19T06:23:56;32.72;;;5.13;;
20283;SDS011;10301;50.832;4.080;2023-11-19T06:26:23;32.03;;;5.43;;
20283;SDS011;10301;50.832;4.080;2023-11-19T06:28:49;29.67;;;5.20;;
20283;SDS011;10301;50.832;4.080;2023-11-19T06:31:14;39.55;;;6.20;;
20283;SDS011;10301;50.832;4.080;2023-11-19T06:33:41;25.70;;;4.55;;
20283;SDS011;10301;50.832;4.080;2023-11-19T06:36:07;26.15;;;4.63;;
20283;SDS011;10301;50.832;4.080;2023-11-19T06:38:34;28.35;;;4.53;;
20283;SDS011;10301;50.832;4.080;2023-11-19T06:41:00;35.58;;;5.13;;
20283;SDS011;10301;50.832;4.080;2023-11-19T06:43:26;33.33;;;4.85;;
20283;SDS011;10301;50.832;4.080;2023-11-19T06:45:53;29.27;;;4.45;;
20283;SDS011;10301;50.832;4.080;2023-11-19T06:48:18;22.92;;;4.50;;
20283;SDS011;10301;50.832;4.080;2023-11-19T06:50:44;24.63;;;4.38;;
20283;SDS011;10301;50.832;4.080;2023-11-19T06:53:10;31.05;;;4.85;;
20283;SDS011;10301;50.832;4.080;2023-11-19T06:55:35;31.95;;;5.03;;
20283;SDS011;10301;50.832;4.080;2023-11-19T06:58:01;33.90;;;5.43;;
20283;SDS011;10301;50.832;4.080;2023-11-19T07:00:29;34.45;;;4.82;;
20283;SDS011;10301;50.832;4.080;2023-11-19T07:02:57;31.58;;;5.25;;
20283;SDS011;10301;50.832;4.080;2023-11-19T07:05:24;33.50;;;4.93;;
20283;SDS011;10301;50.832;4.080;2023-11-19T07:07:50;26.55;;;4.88;;
20283;SDS011;10301;50.832;4.080;2023-11-19T07:10:16;27.40;;;4.75;;
20283;SDS011;10301;50.832;4.080;2023-11-19T07:12:42;29.35;;;4.88;;
20283;SDS011;10301;50.832;4.080;2023-11-19T07:15:08;28.10;;;4.40;;
20283;SDS011;10301;50.832;4.080;2023-11-19T07:17:34;26.13;;;4.80;;
20283;SDS011;10301;50.832;4.080;2023-11-19T07:20:00;38.13;;;4.95;;
20283;SDS011;10301;50.832;4.080;2023-11-19T07:22:26;35.35;;;4.45;;
20283;SDS011;10301;50.832;4.080;2023-11-19T07:24:51;33.70;;;5.18;;
20283;SDS011;10301;50.832;4.080;2023-11-19T07:27:18;36.50;;;5.32;;
20283;SDS011;10301;50.832;4.080;2023-11-19T07:29:44;39.83;;;5.97;;
20283;SDS011;10301;50.832;4.080;2023-11-19T07:32:10;30.88;;;4.38;;
20283;SDS011;10301;50.832;4.080;2023-11-19T07:34:36;25.55;;;4.30;;
20283;SDS011;10301;50.832;4.080;2023-11-19T07:37:01;30.20;;;5.05;;
20283;SDS011;10301;50.832;4.080;2023-11-19T07:39:28;33.00;;;5.78;;
20283;SDS011;10301;50.832;4.080;2023-11-19T07:41:54;25.73;;;4.75;;
20283;SDS011;10301;50.832;4.080;2023-11-19T07:44:20;32.17;;;4.95;;
20283;SDS011;10301;50.832;4.080;2023-11-19T07:46:49;34.47;;;4.85;;
20283;SDS011;10301;50.832;4.080;2023-11-19T07:49:15;30.52;;;5.55;;
20283;SDS011;10301;50.832;4.080;2023-11-19T07:51:41;27.70;;;4.90;;
20283;SDS011;10301;50.832;4.080;2023-11-19T07:54:06;27.63;;;4.90;;
20283;SDS011;10301;50.832;4.080;2023-11-19T07:56:33;33.75;;;5.90;;
20283;SDS011;10301;50.832;4.080;2023-11-19T07:59:02;35.25;;;5.53;;
20283;SDS011;10301;50.832;4.080;2023-11-19T08:01:28;24.67;;;5.07;;
20283;SDS011;10301;50.832;4.080;2023-11-19T08:03:53;21.23;;;4.10;;
20283;SDS011;10301;50.832;4.080;2023-11-19T08:06:19;24.20;;;5.07;;
20283;SDS011;10301;50.832;4.080;2023-11-19T08:08:45;33.88;;;5.07;;
20283;SDS011;10301;50.832;4.080;2023-11-19T08:11:12;24.25;;;4.28;;
20283;SDS011;10301;50.832;4.080;2023-11-19T08:13:38;26.02;;;4.15;;
20283;SDS011;10301;50.832;4.080;2023-11-19T08:16:04;19.52;;;4.88;;
20283;SDS011;10301;50.832;4.080;2023-11-19T08:18:30;28.63;;;4.13;;
20283;SDS011;10301;50.832;4.080;2023-11-19T08:20:56;24.15;;;4.38;;
20283;SDS011;10301;50.832;4.080;2023-11-19T08:23:24;26.45;;;4.72;;
20283;SDS011;10301;50.832;4.080;2023-11-19T08:25:50;26.20;;;3.95;;
20283;SDS011;10301;50.832;4.080;2023-11-19T08:28:17;28.60;;;4.28;;
20283;SDS011;10301;50.832;4.080;2023-11-19T08:30:42;29.17;;;4.07;;
20283;SDS011;10301;50.832;4.080;2023-11-19T08:33:09;27.83;;;5.53;;
20283;SDS011;10301;50.832;4.080;2023-11-19T08:35:35;25.77;;;5.40;;
20283;SDS011;10301;50.832;4.080;2023-11-19T08:38:00;26.13;;;4.43;;
20283;SDS011;10301;50.832;4.080;2023-11-19T08:40:26;20.63;;;4.57;;
20283;SDS011;10301;50.832;4.080;2023-11-19T08:42:52;25.35;;;4.43;;
20283;SDS011;10301;50.832;4.080;2023-11-19T08:45:18;26.30;;;4.07;;
20283;SDS011;10301;50.832;4.080;2023-11-19T08:47:44;20.25;;;3.83;;
20283;SDS011;10301;50.832;4.080;2023-11-19T08:50:10;22.30;;;3.88;;
20283;SDS011;10301;50.832;4.080;2023-11-19T08:52:36;34.67;;;4.90;;
20283;SDS011;10301;50.832;4.080;2023-11-19T08:55:02;27.17;;;4.97;;
20283;SDS011;10301;50.832;4.080;2023-11-19T08:57:30;24.27;;;3.95;;
20283;SDS011;10301;50.832;4.080;2023-11-19T08:59:57;20.60;;;3.60;;
20283;SDS011;10301;50.832;4.080;2023-11-19T09:02:23;25.45;;;4.45;;
20283;SDS011;10301;50.832;4.080;2023-11-19T09:04:49;21.70;;;3.80;;
20283;SDS011;10301;50.832;4.080;2023-11-19T09:07:14;21.83;;;3.83;;
20283;SDS011;10301;50.832;4.080;2023-11-19T09:09:40;27.35;;;3.67;;
20283;SDS011;10301;50.832;4.080;2023-11-19T09:12:06;23.02;;;3.90;;
20283;SDS011;10301;50.832;4.080;2023-11-19T09:14:32;17.77;;;4.03;;
20283;SDS011;10301;50.832;4.080;2023-11-19T09:16:58;17.00;;;3.42;;
20283;SDS011;10301;50.832;4.080;2023-11-19T09:19:24;18.70;;;3.63;;
20283;SDS011;10301;50.832;4.080;2023-11-19T09:21:51;21.58;;;3.97;;
20283;SDS011;10301;50.832;4.080;2023-11-19T09:24:18;25.10;;;4.75;;
20283;SDS011;10301;50.832;4.080;2023-11-19T09:26:43;27.42;;;4.10;;
20283;SDS011;10301;50.832;4.080;2023-11-19T09:29:09;22.60;;;4.28;;
20283;SDS011;10301;50.832;4.080;2023-11-19T09:31:35;17.75;;;3.42;;
20283;SDS011;10301;50.832;4.080;2023-11-19T09:34:03;21.40;;;4.43;;
20283;SDS011;10301;50.832;4.080;2023-11-19T09:36:29;26.08;;;3.55;;
20283;SDS011;10301;50.832;4.080;2023-11-19T09:38:54;19.67;;;3.33;;
20283;SDS011;10301;50.832;4.080;2023-11-19T09:41:20;23.98;;;4.63;;
20283;SDS011;10301;50.832;4.080;2023-11-19T09:43:46;27.38;;;5.20;;
20283;SDS011;10301;50.832;4.080;2023-11-19T09:46:15;21.05;;;4.07;;
20283;SDS011;10301;50.832;4.080;2023-11-19T09:48:42;26.15;;;4.10;;
20283;SDS011;10301;50.832;4.080;2023-11-19T09:51:08;24.25;;;4.53;;
20283;SDS011;10301;50.832;4.080;2023-11-19T09:53:35;27.50;;;4.93;;
20283;SDS011;10301;50.832;4.080;2023-11-19T09:56:05;19.73;;;3.00;;
20283;SDS011;10301;50.832;4.080;2023-11-19T09:58:32;24.55;;;3.90;;
20283;SDS011;10301;50.832;4.080;2023-11-19T10:00:59;21.55;;;4.05;;
20283;SDS011;10301;50.832;4.080;2023-11-19T10:03:32;18.42;;;3.85;;
20283;SDS011;10301;50.832;4.080;2023-11-19T10:06:08;17.63;;;4.25;;
20283;SDS011;10301;50.832;4.080;2023-11-19T10:08:38;17.10;;;3.63;;
20283;SDS011;10301;50.832;4.080;2023-11-19T10:11:05;16.90;;;3.35;;
20283;SDS011;10301;50.832;4.080;2023-11-19T10:13:35;19.45;;;3.42;;
20283;SDS011;10301;50.832;4.080;2023-11-19T10:16:09;24.48;;;3.40;;
20283;SDS011;10301;50.832;4.080;2023-11-19T10:18:37;19.13;;;4.20;;
20283;SDS011;10301;50.832;4.080;2023-11-19T10:21:06;19.20;;;3.20;;
20283;SDS011;10301;50.832;4.080;2023-11-19T10:23:47;21.25;;;3.67;;
20283;SDS011;10301;50.832;4.080;2023-11-19T10:26:14;17.38;;;4.53;;
20283;SDS011;10301;50.832;4.080;2023-11-19T10:28:40;21.13;;;5.53;;
20283;SDS011;10301;50.832;4.080;2023-11-19T10:31:09;23.67;;;4.53;;
20283;SDS011;10301;50.832;4.080;2023-11-19T10:33:35;21.80;;;3.63;;
20283;SDS011;10301;50.832;4.080;2023-11-19T10:36:00;13.23;;;3.13;;
20283;SDS011;10301;50.832;4.080;2023-11-19T10:38:26;13.32;;;3.65;;
20283;SDS011;10301;50.832;4.080;2023-11-19T10:40:52;14.90;;;3.08;;
20283;SDS011;10301;50.832;4.080;2023-11-19T10:43:19;17.60;;;3.10;;
20283;SDS011;10301;50.832;4.080;2023-11-19T10:45:49;15.30;;;3.60;;
20283;SDS011;10301;50.832;4.080;2023-11-19T10:48:14;27.52;;;3.72;;
20283;SDS011;10301;50.832;4.080;2023-11-19T10:50:40;18.10;;;3.58;;
20283;SDS011;10301;50.832;4.080;2023-11-19T10:53:08;17.50;;;5.25;;
20283;SDS011;10301;50.832;4.080;2023-11-19T10:55:36;18.85;;;3.88;;
20283;SDS011;10301;50.832;4.080;2023-11-19T10:58:12;23.23;;;4.18;;
20283;SDS011;10301;50.832;4.080;2023-11-19T11:00:45;19.67;;;3.60;;
20283;SDS011;10301;50.832;4.080;2023-11-19T11:03:17;21.38;;;4.22;;
20283;SDS011;10301;50.832;4.080;2023-11-19T11:05:46;21.85;;;3.60;;
20283;SDS011;10301;50.832;4.080;2023-11-19T11:08:13;18.30;;;3.92;;
20283;SDS011;10301;50.832;4.080;2023-11-19T11:10:39;25.65;;;4.35;;
20283;SDS011;10301;50.832;4.080;2023-11-19T11:13:08;20.60;;;4.43;;
20283;SDS011;10301;50.832;4.080;2023-11-19T11:15:34;23.02;;;4.03;;
20283;SDS011;10301;50.832;4.080;2023-11-19T11:18:02;23.55;;;4.78;;
20283;SDS011;10301;50.832;4.080;2023-11-19T11:20:29;22.17;;;3.88;;
20283;SDS011;10301;50.832;4.080;2023-11-19T11:37:34;25.30;;;4.40;;
20283;SDS011;10301;50.832;4.080;2023-11-19T11:39:45;22.25;;;4.50;;
20283;SDS011;10301;50.832;4.080;2023-11-19T11:45:03;21.55;;;4.22;;
20283;SDS011;10301;50.832;4.080;2023-11-19T11:50:17;24.92;;;4.43;;
20283;SDS011;10301;50.832;4.080;2023-11-19T11:57:51;21.05;;;3.97;;
20283;SDS011;10301;50.832;4.080;2023-11-19T12:02:55;17.67;;;3.20;;
20283;SDS011;10301;50.832;4.080;2023-11-19T12:05:21;18.02;;;3.90;;
20283;SDS011;10301;50.832;4.080;2023-11-19T12:08:00;29.67;;;8.85;;
20283;SDS011;10301;50.832;4.080;2023-11-19T12:10:30;23.05;;;5.70;;
20283;SDS011;10301;50.832;4.080;2023-11-19T12:12:58;22.23;;;4.45;;
20283;SDS011;10301;50.832;4.080;2023-11-19T12:15:24;24.92;;;5.07;;
20283;SDS011;10301;50.832;4.080;2023-11-19T12:17:53;19.20;;;5.32;;
20283;SDS011;10301;50.832;4.080;2023-11-19T12:20:28;22.92;;;5.97;;
20283;SDS011;10301;50.832;4.080;2023-11-19T12:23:02;17.85;;;4.20;;
20283;SDS011;10301;50.832;4.080;2023-11-19T12:25:30;18.20;;;4.65;;
20283;SDS011;10301;50.832;4.080;2023-11-19T12:28:00;23.17;;;4.47;;
20283;SDS011;10301;50.832;4.080;2023-11-19T12:30:29;19.05;;;4.38;;
20283;SDS011;10301;50.832;4.080;2023-11-19T12:32:55;16.40;;;3.55;;
20283;SDS011;10301;50.832;4.080;2023-11-19T12:35:21;19.30;;;4.30;;
20283;SDS011;10301;50.832;4.080;2023-11-19T12:37:47;21.25;;;4.40;;
20283;SDS011;10301;50.832;4.080;2023-11-19T12:40:24;24.70;;;3.90;;
20283;SDS011;10301;50.832;4.080;2023-11-19T12:42:51;20.73;;;3.63;;
20283;SDS011;10301;50.832;4.080;2023-11-19T12:45:18;19.98;;;3.83;;
20283;SDS011;10301;50.832;4.080;2023-11-19T12:47:46;21.35;;;4.75;;
20283;SDS011;10301;50.832;4.080;2023-11-19T12:50:12;29.25;;;4.68;;
20283;SDS011;10301;50.832;4.080;2023-11-19T12:52:39;29.40;;;5.00;;
20283;SDS011;10301;50.832;4.080;2023-11-19T12:55:05;18.52;;;3.63;;
20283;SDS011;10301;50.832;4.080;2023-11-19T12:57:50;21.88;;;3.85;;
20283;SDS011;10301;50.832;4.080;2023-11-19T13:00:19;19.77;;;3.63;;
20283;SDS011;10301;50.832;4.080;2023-11-19T13:02:50;21.25;;;4.45;;
20283;SDS011;10301;50.832;4.080;2023-11-19T13:05:32;20.30;;;3.83;;
20283;SDS011;10301;50.832;4.080;2023-11-19T13:07:59;21.42;;;3.90;;
20283;SDS011;10301;50.832;4.080;2023-11-19T13:10:28;13.90;;;3.75;;
20283;SDS011;10301;50.832;4.080;2023-11-19T13:13:07;27.45;;;6.35;;
20283;SDS011;10301;50.832;4.080;2023-11-19T13:15:34;18.48;;;3.78;;
20283;SDS011;10301;50.832;4.080;2023-11-19T13:18:00;16.90;;;3.75;;
20283;SDS011;10301;50.832;4.080;2023-11-19T13:20:27;25.70;;;5.05;;
20283;SDS011;10301;50.832;4.080;2023-11-19T13:22:57;17.88;;;3.65;;
20283;SDS011;10301;50.832;4.080;2023-11-19T13:25:24;16.67;;;3.63;;
20283;SDS011;10301;50.832;4.080;2023-11-19T13:27:54;19.27;;;4.50;;
20283;SDS011;10301;50.832;4.080;2023-11-19T13:30:20;19.40;;;4.43;;
20283;SDS011;10301;50.832;4.080;2023-11-19T13:32:47;24.85;;;4.40;;
20283;SDS011;10301;50.832;4.080;2023-11-19T13:35:13;20.77;;;4.93;;
20283;SDS011;10301;50.832;4.080;2023-11-19T13:37:39;31.10;;;5.28;;
20283;SDS011;10301;50.832;4.080;2023-11-19T13:40:09;20.25;;;3.85;;
20283;SDS011;10301;50.832;4.080;2023-11-19T13:42:38;23.25;;;4.32;;
20283;SDS011;10301;50.832;4.080;2023-11-19T13:45:13;20.98;;;4.63;;
20283;SDS011;10301;50.832;4.080;2023-11-19T13:47:43;25.20;;;4.47;;
20283;SDS011;10301;50.832;4.080;2023-11-19T13:50:10;23.00;;;4.25;;
20283;SDS011;10301;50.832;4.080;2023-11-19T13:52:41;18.00;;;3.88;;
20283;SDS011;10301;50.832;4.080;2023-11-19T13:55:08;23.70;;;5.05;;
20283;SDS011;10301;50.832;4.080;2023-11-19T13:57:35;23.05;;;5.60;;
20283;SDS011;10301;50.832;4.080;2023-11-19T14:00:02;24.50;;;4.63;;
20283;SDS011;10301;50.832;4.080;2023-11-19T14:02:32;23.27;;;4.72;;
20283;SDS011;10301;50.832;4.080;2023-11-19T14:04:58;24.08;;;6.00;;
20283;SDS011;10301;50.832;4.080;2023-11-19T14:07:24;20.23;;;5.03;;
20283;SDS011;10301;50.832;4.080;2023-11-19T14:09:50;32.38;;;5.53;;
20283;SDS011;10301;50.832;4.080;2023-11-19T14:12:15;29.15;;;6.22;;
20283;SDS011;10301;50.832;4.080;2023-11-19T14:14:41;27.35;;;8.90;;
20283;SDS011;10301;50.832;4.080;2023-11-19T14:17:07;27.95;;;4.90;;
20283;SDS011;10301;50.832;4.080;2023-11-19T14:19:33;20.33;;;4.13;;
20283;SDS011;10301;50.832;4.080;2023-11-19T14:21:59;21.42;;;3.80;;
20283;SDS011;10301;50.832;4.080;2023-11-19T14:24:25;23.45;;;4.93;;
20283;SDS011;10301;50.832;4.080;2023-11-19T14:26:51;23.75;;;3.88;;
20283;SDS011;10301;50.832;4.080;2023-11-19T14:29:17;23.15;;;4.60;;
20283;SDS011;10301;50.832;4.080;2023-11-19T14:31:43;22.42;;;3.80;;
20283;SDS011;10301;50.832;4.080;2023-11-19T14:34:09;23.70;;;4.28;;
20283;SDS011;10301;50.832;4.080;2023-11-19T14:36:34;25.83;;;4.82;;
20283;SDS011;10301;50.832;4.080;2023-11-19T14:39:00;23.90;;;4.60;;
20283;SDS011;10301;50.832;4.080;2023-11-19T14:41:26;24.80;;;4.25;;
20283;SDS011;10301;50.832;4.080;2023-11-19T14:43:52;22.30;;;4.50;;
20283;SDS011;10301;50.832;4.080;2023-11-19T14:46:17;27.45;;;4.63;;
20283;SDS011;10301;50.832;4.080;2023-11-19T14:48:43;19.92;;;3.92;;
20283;SDS011;10301;50.832;4.080;2023-11-19T14:51:09;30.05;;;3.88;;
20283;SDS011;10301;50.832;4.080;2023-11-19T14:53:35;28.38;;;4.65;;
20283;SDS011;10301;50.832;4.080;2023-11-19T14:56:00;25.63;;;4.25;;
20283;SDS011;10301;50.832;4.080;2023-11-19T14:58:27;19.42;;;3.70;;
20283;SDS011;10301;50.832;4.080;2023-11-19T15:00:53;27.38;;;4.72;;
20283;SDS011;10301;50.832;4.080;2023-11-19T15:03:18;22.45;;;4.15;;